sensor_id;sensor_type;location;lat;lon;timestamp;pressure;altitude;pressure_sealevel;temperature;humidity
53514;BME280;39768;54.148;12.174;2023-02-04T00:03:22;102563.97;;;5.73;100.00
53514;BME280;39768;54.148;12.174;2023-02-04T00:07:24;102568.09;;;5.17;100.00
53514;BME280;39768;54.148;12.174;2023-02-04T00:11:25;102590.78;;;5.38;100.00
53514;BME280;39768;54.148;12.174;2023-02-04T00:15:27;102590.50;;;5.54;100.00
53514;BME280;39768;54.148;12.174;2023-02-04T00:19:29;102600.63;;;5.67;100.00
53514;BME280;39768;54.148;12.174;2023-02-04T00:23:30;102606.25;;;5.52;100.00
53514;BME280;39768;54.148;12.174;2023-02-04T00:27:32;102630.06;;;5.31;100.00
53514;BME280;39768;54.148;12.174;2023-02-04T00:31:34;102634.31;;;5.28;100.00
53514;BME280;39768;54.148;12.174;2023-02-04T00:35:35;102649.03;;;5.69;100.00
53514;BME280;39768;54.148;12.174;2023-02-04T00:39:39;102662.84;;;5.40;100.00
53514;BME280;39768;54.148;12.174;2023-02-04T00:43:41;102669.91;;;5.63;100.00
53514;BME280;39768;54.148;12.174;2023-02-04T00:47:42;102676.91;;;5.40;100.00
53514;BME280;39768;54.148;12.174;2023-02-04T00:51:44;102684.53;;;5.79;100.00
53514;BME280;39768;54.148;12.174;2023-02-04T00:55:47;102710.19;;;5.84;100.00
53514;BME280;39768;54.148;12.174;2023-02-04T00:59:48;102733.44;;;5.48;100.00
53514;BME280;39768;54.148;12.174;2023-02-04T01:03:50;102733.81;;;5.81;100.00
53514;BME280;39768;54.148;12.174;2023-02-04T01:07:52;102750.31;;;5.53;100.00
53514;BME280;39768;54.148;12.174;2023-02-04T01:11:53;102755.25;;;5.68;100.00
53514;BME280;39768;54.148;12.174;2023-02-04T01:15:55;102764.19;;;5.72;100.00
53514;BME280;39768;54.148;12.174;2023-02-04T01:19:56;102778.84;;;5.87;100.00
53514;BME280;39768;54.148;12.174;2023-02-04T01:23:58;102780.06;;;5.73;100.00
53514;BME280;39768;54.148;12.174;2023-02-04T01:28:00;102795.03;;;6.19;100.00
53514;BME280;39768;54.148;12.174;2023-02-04T01:32:04;102795.50;;;6.09;100.00
53514;BME280;39768;54.148;12.174;2023-02-04T01:36:06;102804.50;;;6.14;100.00
53514;BME280;39768;54.148;12.174;2023-02-04T01:40:10;102807.63;;;5.59;100.00
53514;BME280;39768;54.148;12.174;2023-02-04T01:44:11;102807.84;;;5.87;98.63
53514;BME280;39768;54.148;12.174;2023-02-04T01:48:13;102822.56;;;5.38;99.87
53514;BME280;39768;54.148;12.174;2023-02-04T01:52:21;102828.81;;;5.62;98.46
53514;BME280;39768;54.148;12.174;2023-02-04T01:56:25;102842.03;;;5.20;99.61
53514;BME280;39768;54.148;12.174;2023-02-04T02:00:31;102856.09;;;5.42;98.36
53514;BME280;39768;54.148;12.174;2023-02-04T02:04:34;102853.53;;;5.22;99.17
53514;BME280;39768;54.148;12.174;2023-02-04T02:08:36;102881.00;;;5.50;100.00
53514;BME280;39768;54.148;12.174;2023-02-04T02:12:39;102882.56;;;5.45;98.76
53514;BME280;39768;54.148;12.174;2023-02-04T02:16:42;102892.34;;;5.47;99.05
53514;BME280;39768;54.148;12.174;2023-02-04T02:20:45;102899.38;;;5.27;99.80
53514;BME280;39768;54.148;12.174;2023-02-04T02:24:47;102900.53;;;5.55;97.37
53514;BME280;39768;54.148;12.174;2023-02-04T02:28:49;102909.97;;;5.50;97.00
53514;BME280;39768;54.148;12.174;2023-02-04T02:32:51;102921.75;;;5.16;96.26
53514;BME280;39768;54.148;12.174;2023-02-04T02:36:53;102937.56;;;5.79;95.40
53514;BME280;39768;54.148;12.174;2023-02-04T02:40:57;102949.03;;;5.81;93.52
53514;BME280;39768;54.148;12.174;2023-02-04T02:45:02;102958.69;;;6.01;93.49
53514;BME280;39768;54.148;12.174;2023-02-04T02:49:05;102962.50;;;6.08;93.35
53514;BME280;39768;54.148;12.174;2023-02-04T02:53:12;102970.47;;;5.47;92.06
53514;BME280;39768;54.148;12.174;2023-02-04T02:57:19;102977.94;;;5.78;91.64
53514;BME280;39768;54.148;12.174;2023-02-04T03:01:22;102991.78;;;5.53;91.98
53514;BME280;39768;54.148;12.174;2023-02-04T03:05:24;102986.13;;;5.85;93.41
53514;BME280;39768;54.148;12.174;2023-02-04T03:09:27;102996.97;;;5.91;91.71
53514;BME280;39768;54.148;12.174;2023-02-04T03:13:29;103015.09;;;6.05;91.32
53514;BME280;39768;54.148;12.174;2023-02-04T03:17:31;103022.00;;;5.82;93.05
53514;BME280;39768;54.148;12.174;2023-02-04T03:21:33;103025.47;;;5.60;94.46
53514;BME280;39768;54.148;12.174;2023-02-04T03:25:37;103035.59;;;6.12;93.10
53514;BME280;39768;54.148;12.174;2023-02-04T03:29:43;103047.38;;;5.59;91.80
53514;BME280;39768;54.148;12.174;2023-02-04T03:33:47;103052.22;;;5.69;91.91
53514;BME280;39768;54.148;12.174;2023-02-04T03:37:48;103064.25;;;5.62;95.92
53514;BME280;39768;54.148;12.174;2023-02-04T03:41:50;103077.88;;;5.92;91.02
53514;BME280;39768;54.148;12.174;2023-02-04T03:45:51;103084.75;;;5.89;90.38
53514;BME280;39768;54.148;12.174;2023-02-04T03:49:53;103090.34;;;5.77;90.67
53514;BME280;39768;54.148;12.174;2023-02-04T03:53:54;103107.28;;;5.24;95.93
53514;BME280;39768;54.148;12.174;2023-02-04T03:57:56;103123.59;;;5.16;97.77
53514;BME280;39768;54.148;12.174;2023-02-04T04:02:00;103125.38;;;5.17;98.86
53514;BME280;39768;54.148;12.174;2023-02-04T04:06:03;103140.03;;;5.29;99.97
53514;BME280;39768;54.148;12.174;2023-02-04T04:10:06;103138.56;;;5.17;99.37
53514;BME280;39768;54.148;12.174;2023-02-04T04:14:09;103147.63;;;5.04;100.00
53514;BME280;39768;54.148;12.174;2023-02-04T04:18:10;103159.72;;;4.83;100.00
53514;BME280;39768;54.148;12.174;2023-02-04T04:22:12;103169.59;;;4.87;100.00
53514;BME280;39768;54.148;12.174;2023-02-04T04:26:13;103169.19;;;4.97;99.19
53514;BME280;39768;54.148;12.174;2023-02-04T04:30:16;103182.06;;;4.91;99.83
53514;BME280;39768;54.148;12.174;2023-02-04T04:34:18;103184.78;;;4.75;99.88
53514;BME280;39768;54.148;12.174;2023-02-04T04:38:20;103193.41;;;5.45;95.83
53514;BME280;39768;54.148;12.174;2023-02-04T04:42:21;103203.63;;;5.19;95.09
53514;BME280;39768;54.148;12.174;2023-02-04T04:46:23;103206.38;;;5.03;95.69
53514;BME280;39768;54.148;12.174;2023-02-04T04:50:27;103225.47;;;4.99;95.36
53514;BME280;39768;54.148;12.174;2023-02-04T04:54:33;103233.66;;;4.87;96.18
53514;BME280;39768;54.148;12.174;2023-02-04T04:58:35;103244.91;;;5.20;92.33
53514;BME280;39768;54.148;12.174;2023-02-04T05:02:36;103258.63;;;4.95;93.99
53514;BME280;39768;54.148;12.174;2023-02-04T05:06:38;103268.25;;;5.13;93.38
53514;BME280;39768;54.148;12.174;2023-02-04T05:10:39;103283.47;;;5.18;91.98
53514;BME280;39768;54.148;12.174;2023-02-04T05:14:41;103286.75;;;5.14;92.60
53514;BME280;39768;54.148;12.174;2023-02-04T05:18:42;103294.91;;;5.19;92.23
53514;BME280;39768;54.148;12.174;2023-02-04T05:22:44;103295.31;;;5.10;91.85
53514;BME280;39768;54.148;12.174;2023-02-04T05:26:45;103304.38;;;5.15;91.30
53514;BME280;39768;54.148;12.174;2023-02-04T05:30:47;103302.63;;;5.16;90.50
53514;BME280;39768;54.148;12.174;2023-02-04T05:34:49;103299.16;;;5.35;90.37
53514;BME280;39768;54.148;12.174;2023-02-04T05:38:50;103304.53;;;5.18;90.74
53514;BME280;39768;54.148;12.174;2023-02-04T05:42:52;103315.50;;;5.10;91.75
53514;BME280;39768;54.148;12.174;2023-02-04T05:46:53;103304.16;;;4.59;91.77
53514;BME280;39768;54.148;12.174;2023-02-04T05:50:55;103305.16;;;4.79;92.36
53514;BME280;39768;54.148;12.174;2023-02-04T05:54:56;103309.78;;;4.67;92.67
53514;BME280;39768;54.148;12.174;2023-02-04T05:58:59;103322.03;;;5.00;94.25
53514;BME280;39768;54.148;12.174;2023-02-04T06:03:01;103322.13;;;4.68;91.01
53514;BME280;39768;54.148;12.174;2023-02-04T06:07:02;103314.06;;;4.65;92.34
53514;BME280;39768;54.148;12.174;2023-02-04T06:11:04;103327.75;;;4.57;92.73
53514;BME280;39768;54.148;12.174;2023-02-04T06:15:06;103333.19;;;4.28;94.55
53514;BME280;39768;54.148;12.174;2023-02-04T06:19:08;103343.84;;;4.31;96.04
53514;BME280;39768;54.148;12.174;2023-02-04T06:23:10;103361.34;;;4.47;94.47
53514;BME280;39768;54.148;12.174;2023-02-04T06:27:12;103359.41;;;4.43;94.58
53514;BME280;39768;54.148;12.174;2023-02-04T06:31:14;103371.97;;;4.48;95.08
53514;BME280;39768;54.148;12.174;2023-02-04T06:35:15;103372.47;;;4.41;95.42
53514;BME280;39768;54.148;12.174;2023-02-04T06:39:17;103391.81;;;4.76;95.30
53514;BME280;39768;54.148;12.174;2023-02-04T06:43:19;103389.16;;;4.42;95.77
53514;BME280;39768;54.148;12.174;2023-02-04T06:47:21;103399.91;;;4.63;95.76
53514;BME280;39768;54.148;12.174;2023-02-04T06:51:22;103406.66;;;4.25;98.06
53514;BME280;39768;54.148;12.174;2023-02-04T06:55:23;103420.00;;;4.44;97.74
53514;BME280;39768;54.148;12.174;2023-02-04T06:59:25;103424.66;;;4.66;96.98
53514;BME280;39768;54.148;12.174;2023-02-04T07:03:32;103427.63;;;4.72;96.14
53514;BME280;39768;54.148;12.174;2023-02-04T07:07:34;103452.84;;;5.01;94.94
53514;BME280;39768;54.148;12.174;2023-02-04T07:11:35;103466.41;;;5.09;94.30
53514;BME280;39768;54.148;12.174;2023-02-04T07:15:37;103481.88;;;5.19;93.56
53514;BME280;39768;54.148;12.174;2023-02-04T07:19:38;103484.06;;;5.27;93.24
53514;BME280;39768;54.148;12.174;2023-02-04T07:23:40;103493.13;;;5.32;92.54
53514;BME280;39768;54.148;12.174;2023-02-04T07:27:41;103505.13;;;5.27;93.04
53514;BME280;39768;54.148;12.174;2023-02-04T07:31:43;103504.44;;;4.97;94.12
53514;BME280;39768;54.148;12.174;2023-02-04T07:35:45;103514.63;;;4.91;95.17
53514;BME280;39768;54.148;12.174;2023-02-04T07:39:47;103518.31;;;5.11;92.08
53514;BME280;39768;54.148;12.174;2023-02-04T07:43:50;103515.59;;;5.60;90.32
53514;BME280;39768;54.148;12.174;2023-02-04T07:48:03;103524.34;;;5.59;89.45
53514;BME280;39768;54.148;12.174;2023-02-04T07:52:05;103544.38;;;5.39;90.42
53514;BME280;39768;54.148;12.174;2023-02-04T07:56:10;103541.78;;;5.57;89.89
53514;BME280;39768;54.148;12.174;2023-02-04T08:00:13;103543.28;;;5.52;90.77
53514;BME280;39768;54.148;12.174;2023-02-04T08:04:16;103558.84;;;5.63;90.21
53514;BME280;39768;54.148;12.174;2023-02-04T08:08:18;103546.00;;;5.53;90.96
53514;BME280;39768;54.148;12.174;2023-02-04T08:12:19;103556.66;;;5.73;89.26
53514;BME280;39768;54.148;12.174;2023-02-04T08:16:21;103556.63;;;5.55;90.62
53514;BME280;39768;54.148;12.174;2023-02-04T08:20:22;103558.81;;;4.97;94.36
53514;BME280;39768;54.148;12.174;2023-02-04T08:24:24;103571.97;;;4.97;96.96
53514;BME280;39768;54.148;12.174;2023-02-04T08:28:25;103582.69;;;4.53;96.98
53514;BME280;39768;54.148;12.174;2023-02-04T08:32:27;103587.41;;;4.75;98.00
53514;BME280;39768;54.148;12.174;2023-02-04T08:36:29;103595.25;;;4.89;97.86
53514;BME280;39768;54.148;12.174;2023-02-04T08:40:31;103600.34;;;4.86;97.34
53514;BME280;39768;54.148;12.174;2023-02-04T08:44:33;103606.38;;;5.00;96.63
53514;BME280;39768;54.148;12.174;2023-02-04T08:48:34;103607.22;;;5.31;96.01
53514;BME280;39768;54.148;12.174;2023-02-04T08:52:36;103593.44;;;4.88;97.35
53514;BME280;39768;54.148;12.174;2023-02-04T08:57:03;103601.91;;;4.99;92.77
53514;BME280;39768;54.148;12.174;2023-02-04T09:01:08;103605.34;;;4.82;90.90
53514;BME280;39768;54.148;12.174;2023-02-04T09:05:11;103615.38;;;4.73;90.72
53514;BME280;39768;54.148;12.174;2023-02-04T09:09:13;103622.69;;;5.42;86.36
53514;BME280;39768;54.148;12.174;2023-02-04T09:13:15;103625.13;;;4.75;84.02
53514;BME280;39768;54.148;12.174;2023-02-04T09:17:17;103621.81;;;5.91;81.05
53514;BME280;39768;54.148;12.174;2023-02-04T09:21:19;103630.25;;;6.36;81.15
53514;BME280;39768;54.148;12.174;2023-02-04T09:25:20;103629.41;;;5.53;82.18
53514;BME280;39768;54.148;12.174;2023-02-04T09:29:22;103627.72;;;5.87;82.82
53514;BME280;39768;54.148;12.174;2023-02-04T09:33:23;103635.72;;;6.05;81.28
53514;BME280;39768;54.148;12.174;2023-02-04T09:37:25;103639.09;;;6.03;82.11
53514;BME280;39768;54.148;12.174;2023-02-04T09:41:27;103638.53;;;5.76;81.90
53514;BME280;39768;54.148;12.174;2023-02-04T09:45:34;103639.75;;;5.82;82.82
53514;BME280;39768;54.148;12.174;2023-02-04T09:49:37;103650.97;;;5.94;79.40
53514;BME280;39768;54.148;12.174;2023-02-04T09:53:39;103652.09;;;5.83;80.43
53514;BME280;39768;54.148;12.174;2023-02-04T09:57:41;103663.72;;;5.87;82.63
53514;BME280;39768;54.148;12.174;2023-02-04T10:01:45;103664.66;;;5.71;82.11
53514;BME280;39768;54.148;12.174;2023-02-04T10:05:48;103659.31;;;5.53;81.09
53514;BME280;39768;54.148;12.174;2023-02-04T10:09:51;103665.75;;;5.58;81.95
53514;BME280;39768;54.148;12.174;2023-02-04T10:13:55;103671.09;;;5.60;81.26
53514;BME280;39768;54.148;12.174;2023-02-04T10:18:00;103667.94;;;5.51;82.86
53514;BME280;39768;54.148;12.174;2023-02-04T10:22:14;103673.16;;;5.33;82.56
53514;BME280;39768;54.148;12.174;2023-02-04T10:26:20;103670.00;;;5.40;81.06
53514;BME280;39768;54.148;12.174;2023-02-04T10:30:41;103673.97;;;5.32;81.83
53514;BME280;39768;54.148;12.174;2023-02-04T10:34:43;103686.72;;;5.41;81.22
53514;BME280;39768;54.148;12.174;2023-02-04T10:38:58;103687.91;;;5.46;84.53
53514;BME280;39768;54.148;12.174;2023-02-04T10:43:21;103686.00;;;5.76;80.01
53514;BME280;39768;54.148;12.174;2023-02-04T10:47:25;103702.84;;;5.14;82.23
53514;BME280;39768;54.148;12.174;2023-02-04T10:51:27;103702.72;;;5.44;80.48
53514;BME280;39768;54.148;12.174;2023-02-04T10:55:29;103696.28;;;5.55;80.86
53514;BME280;39768;54.148;12.174;2023-02-04T10:59:30;103706.66;;;5.52;84.31
53514;BME280;39768;54.148;12.174;2023-02-04T11:03:32;103700.25;;;5.63;83.84
53514;BME280;39768;54.148;12.174;2023-02-04T11:07:33;103709.53;;;5.40;89.21
53514;BME280;39768;54.148;12.174;2023-02-04T11:11:35;103716.13;;;5.32;91.39
53514;BME280;39768;54.148;12.174;2023-02-04T11:15:45;103711.31;;;4.94;88.58
53514;BME280;39768;54.148;12.174;2023-02-04T11:19:50;103714.13;;;4.97;89.69
53514;BME280;39768;54.148;12.174;2023-02-04T11:28:13;103712.78;;;5.20;86.02
53514;BME280;39768;54.148;12.174;2023-02-04T11:32:33;103719.19;;;5.09;82.51
53514;BME280;39768;54.148;12.174;2023-02-04T11:36:56;103726.22;;;5.24;82.14
53514;BME280;39768;54.148;12.174;2023-02-04T11:41:05;103730.06;;;5.15;84.69
53514;BME280;39768;54.148;12.174;2023-02-04T11:45:19;103739.34;;;5.55;80.32
53514;BME280;39768;54.148;12.174;2023-02-04T11:50:19;103736.25;;;5.62;78.60
53514;BME280;39768;54.148;12.174;2023-02-04T11:54:21;103746.13;;;5.83;73.67
53514;BME280;39768;54.148;12.174;2023-02-04T11:58:25;103749.44;;;5.01;71.81
53514;BME280;39768;54.148;12.174;2023-02-04T12:02:48;103750.72;;;5.54;73.73
53514;BME280;39768;54.148;12.174;2023-02-04T12:07:01;103747.19;;;5.86;71.89
53514;BME280;39768;54.148;12.174;2023-02-04T12:11:10;103752.56;;;6.20;71.37
53514;BME280;39768;54.148;12.174;2023-02-04T12:15:21;103753.44;;;5.72;72.19
53514;BME280;39768;54.148;12.174;2023-02-04T12:19:24;103750.25;;;5.94;76.69
53514;BME280;39768;54.148;12.174;2023-02-04T12:23:28;103755.16;;;5.55;74.04
53514;BME280;39768;54.148;12.174;2023-02-04T12:27:30;103755.66;;;5.48;76.92
53514;BME280;39768;54.148;12.174;2023-02-04T12:31:32;103753.28;;;5.69;75.70
53514;BME280;39768;54.148;12.174;2023-02-04T12:35:34;103754.25;;;5.55;75.05
53514;BME280;39768;54.148;12.174;2023-02-04T12:39:35;103766.31;;;5.35;72.96
53514;BME280;39768;54.148;12.174;2023-02-04T12:43:37;103768.34;;;5.24;74.05
53514;BME280;39768;54.148;12.174;2023-02-04T12:47:39;103773.00;;;4.68;76.87
53514;BME280;39768;54.148;12.174;2023-02-04T12:51:40;103767.84;;;5.15;74.44
53514;BME280;39768;54.148;12.174;2023-02-04T12:55:42;103769.72;;;4.87;75.13
53514;BME280;39768;54.148;12.174;2023-02-04T12:59:43;103777.53;;;4.71;79.35
53514;BME280;39768;54.148;12.174;2023-02-04T13:03:44;103786.97;;;4.82;80.83
53514;BME280;39768;54.148;12.174;2023-02-04T13:07:46;103794.16;;;4.70;77.87
53514;BME280;39768;54.148;12.174;2023-02-04T13:11:47;103803.22;;;4.75;79.60
53514;BME280;39768;54.148;12.174;2023-02-04T13:15:49;103799.50;;;4.56;73.28
53514;BME280;39768;54.148;12.174;2023-02-04T13:19:51;103804.69;;;4.70;71.89
53514;BME280;39768;54.148;12.174;2023-02-04T13:23:53;103804.75;;;4.71;72.68
53514;BME280;39768;54.148;12.174;2023-02-04T13:27:55;103812.00;;;4.60;80.53
53514;BME280;39768;54.148;12.174;2023-02-04T13:31:56;103819.75;;;4.57;75.37
53514;BME280;39768;54.148;12.174;2023-02-04T13:35:58;103818.94;;;4.73;70.85
53514;BME280;39768;54.148;12.174;2023-02-04T13:40:00;103813.56;;;5.01;67.20
53514;BME280;39768;54.148;12.174;2023-02-04T13:44:03;103828.31;;;5.28;65.94
53514;BME280;39768;54.148;12.174;2023-02-04T13:48:05;103818.03;;;4.87;70.80
53514;BME280;39768;54.148;12.174;2023-02-04T13:52:06;103825.53;;;4.81;70.05
53514;BME280;39768;54.148;12.174;2023-02-04T13:56:08;103824.09;;;5.01;71.47
53514;BME280;39768;54.148;12.174;2023-02-04T14:00:10;103815.53;;;5.05;73.49
53514;BME280;39768;54.148;12.174;2023-02-04T14:04:17;103825.81;;;4.86;71.57
53514;BME280;39768;54.148;12.174;2023-02-04T14:08:42;103821.72;;;4.61;72.21
53514;BME280;39768;54.148;12.174;2023-02-04T14:12:47;103828.81;;;4.20;74.26
53514;BME280;39768;54.148;12.174;2023-02-04T14:16:58;103832.78;;;4.41;74.78
53514;BME280;39768;54.148;12.174;2023-02-04T14:21:00;103821.72;;;4.91;72.66
53514;BME280;39768;54.148;12.174;2023-02-04T14:25:08;103828.66;;;4.32;70.75
53514;BME280;39768;54.148;12.174;2023-02-04T14:29:10;103829.56;;;4.32;73.57
53514;BME280;39768;54.148;12.174;2023-02-04T14:33:12;103824.59;;;4.37;73.13
53514;BME280;39768;54.148;12.174;2023-02-04T14:37:15;103831.66;;;4.23;72.52
53514;BME280;39768;54.148;12.174;2023-02-04T14:41:17;103831.97;;;4.42;72.84
53514;BME280;39768;54.148;12.174;2023-02-04T14:45:21;103841.09;;;4.34;73.00
53514;BME280;39768;54.148;12.174;2023-02-04T14:49:23;103849.69;;;4.32;74.49
53514;BME280;39768;54.148;12.174;2023-02-04T14:53:24;103861.38;;;3.94;76.49
53514;BME280;39768;54.148;12.174;2023-02-04T14:57:29;103859.63;;;3.67;79.61
53514;BME280;39768;54.148;12.174;2023-02-04T15:01:40;103873.06;;;3.58;81.24
53514;BME280;39768;54.148;12.174;2023-02-04T15:05:52;103863.09;;;3.39;81.10
53514;BME280;39768;54.148;12.174;2023-02-04T15:09:55;103880.03;;;3.58;81.93
53514;BME280;39768;54.148;12.174;2023-02-04T15:13:59;103880.47;;;3.24;83.04
53514;BME280;39768;54.148;12.174;2023-02-04T15:18:00;103876.63;;;3.32;84.23
53514;BME280;39768;54.148;12.174;2023-02-04T15:22:02;103869.13;;;2.99;84.67
53514;BME280;39768;54.148;12.174;2023-02-04T15:26:04;103869.88;;;3.09;85.81
53514;BME280;39768;54.148;12.174;2023-02-04T15:30:06;103867.03;;;3.06;86.26
53514;BME280;39768;54.148;12.174;2023-02-04T15:34:08;103869.44;;;2.90;87.19
53514;BME280;39768;54.148;12.174;2023-02-04T15:38:10;103870.66;;;2.95;86.02
53514;BME280;39768;54.148;12.174;2023-02-04T15:42:12;103877.72;;;3.49;83.91
53514;BME280;39768;54.148;12.174;2023-02-04T15:46:13;103878.44;;;3.46;82.25
53514;BME280;39768;54.148;12.174;2023-02-04T15:50:15;103897.41;;;3.29;82.66
53514;BME280;39768;54.148;12.174;2023-02-04T15:54:16;103884.81;;;3.10;83.93
53514;BME280;39768;54.148;12.174;2023-02-04T15:58:18;103876.41;;;3.16;84.00
53514;BME280;39768;54.148;12.174;2023-02-04T16:02:20;103883.69;;;3.07;83.85
53514;BME280;39768;54.148;12.174;2023-02-04T16:06:22;103892.63;;;2.97;85.28
53514;BME280;39768;54.148;12.174;2023-02-04T16:10:24;103895.44;;;2.87;86.67
53514;BME280;39768;54.148;12.174;2023-02-04T16:14:25;103888.28;;;2.98;85.95
53514;BME280;39768;54.148;12.174;2023-02-04T16:18:27;103894.66;;;2.88;85.65
53514;BME280;39768;54.148;12.174;2023-02-04T16:22:29;103900.38;;;2.82;85.23
53514;BME280;39768;54.148;12.174;2023-02-04T16:26:30;103902.44;;;2.62;86.84
53514;BME280;39768;54.148;12.174;2023-02-04T16:30:32;103898.03;;;2.74;87.44
53514;BME280;39768;54.148;12.174;2023-02-04T16:34:34;103913.78;;;2.24;88.92
53514;BME280;39768;54.148;12.174;2023-02-04T16:38:35;103917.75;;;2.56;89.09
53514;BME280;39768;54.148;12.174;2023-02-04T16:42:39;103917.50;;;2.64;88.03
53514;BME280;39768;54.148;12.174;2023-02-04T16:46:40;103913.13;;;2.15;92.40
53514;BME280;39768;54.148;12.174;2023-02-04T16:50:42;103915.81;;;2.28;91.54
53514;BME280;39768;54.148;12.174;2023-02-04T16:54:43;103915.13;;;2.06;91.62
53514;BME280;39768;54.148;12.174;2023-02-04T16:58:45;103924.59;;;2.54;100.00
53514;BME280;39768;54.148;12.174;2023-02-04T17:02:47;103925.50;;;2.29;96.77
53514;BME280;39768;54.148;12.174;2023-02-04T17:06:49;103927.84;;;2.13;94.36
53514;BME280;39768;54.148;12.174;2023-02-04T17:10:51;103926.97;;;2.01;94.16
53514;BME280;39768;54.148;12.174;2023-02-04T17:15:12;103932.72;;;1.72;96.48
53514;BME280;39768;54.148;12.174;2023-02-04T17:19:15;103930.66;;;1.56;96.07
53514;BME280;39768;54.148;12.174;2023-02-04T17:23:17;103931.69;;;1.58;98.20
53514;BME280;39768;54.148;12.174;2023-02-04T17:27:19;103950.81;;;1.57;98.59
53514;BME280;39768;54.148;12.174;2023-02-04T17:31:20;103959.78;;;1.84;97.57
53514;BME280;39768;54.148;12.174;2023-02-04T17:35:23;103953.69;;;1.60;97.04
53514;BME280;39768;54.148;12.174;2023-02-04T17:39:24;103948.41;;;1.37;99.70
53514;BME280;39768;54.148;12.174;2023-02-04T17:43:26;103945.56;;;1.34;100.00
53514;BME280;39768;54.148;12.174;2023-02-04T17:47:28;103949.69;;;1.42;100.00
53514;BME280;39768;54.148;12.174;2023-02-04T17:51:29;103948.88;;;1.31;100.00
53514;BME280;39768;54.148;12.174;2023-02-04T17:55:32;103952.38;;;1.20;100.00
53514;BME280;39768;54.148;12.174;2023-02-04T17:59:35;103946.91;;;0.39;100.00
53514;BME280;39768;54.148;12.174;2023-02-04T18:03:37;103941.75;;;0.95;100.00
53514;BME280;39768;54.148;12.174;2023-02-04T18:07:44;103937.19;;;0.81;100.00
53514;BME280;39768;54.148;12.174;2023-02-04T18:11:47;103942.25;;;1.25;100.00
53514;BME280;39768;54.148;12.174;2023-02-04T18:15:51;103936.50;;;0.84;100.00
53514;BME280;39768;54.148;12.174;2023-02-04T18:19:53;103938.19;;;0.72;100.00
53514;BME280;39768;54.148;12.174;2023-02-04T18:24:12;103935.97;;;0.99;100.00
53514;BME280;39768;54.148;12.174;2023-02-04T18:28:19;103932.09;;;1.06;100.00
53514;BME280;39768;54.148;12.174;2023-02-04T18:32:32;103951.13;;;1.03;100.00
53514;BME280;39768;54.148;12.174;2023-02-04T18:36:36;103956.91;;;0.99;100.00
53514;BME280;39768;54.148;12.174;2023-02-04T18:40:38;103969.19;;;1.00;100.00
53514;BME280;39768;54.148;12.174;2023-02-04T18:44:41;103971.31;;;0.94;100.00
53514;BME280;39768;54.148;12.174;2023-02-04T18:48:55;103969.38;;;0.92;100.00
53514;BME280;39768;54.148;12.174;2023-02-04T18:57:19;103969.84;;;0.86;100.00
53514;BME280;39768;54.148;12.174;2023-02-04T19:01:32;103965.53;;;0.98;100.00
53514;BME280;39768;54.148;12.174;2023-02-04T19:05:41;103962.19;;;0.89;100.00
53514;BME280;39768;54.148;12.174;2023-02-04T19:09:47;103964.66;;;0.76;100.00
53514;BME280;39768;54.148;12.174;2023-02-04T19:13:50;103972.19;;;0.72;100.00
53514;BME280;39768;54.148;12.174;2023-02-04T19:17:56;103976.91;;;0.87;100.00
53514;BME280;39768;54.148;12.174;2023-02-04T19:21:59;103975.00;;;0.75;100.00
53514;BME280;39768;54.148;12.174;2023-02-04T19:26:01;103982.66;;;0.83;100.00
53514;BME280;39768;54.148;12.174;2023-02-04T19:34:32;103983.19;;;0.67;100.00
53514;BME280;39768;54.148;12.174;2023-02-04T19:38:42;103990.94;;;0.44;100.00
53514;BME280;39768;54.148;12.174;2023-02-04T19:42:45;103998.94;;;0.57;100.00
53514;BME280;39768;54.148;12.174;2023-02-04T19:46:46;104000.50;;;0.77;100.00
53514;BME280;39768;54.148;12.174;2023-02-04T19:50:51;104006.22;;;0.83;100.00
53514;BME280;39768;54.148;12.174;2023-02-04T19:59:35;103997.53;;;0.51;100.00
53514;BME280;39768;54.148;12.174;2023-02-04T20:03:44;104004.00;;;-0.20;100.00
53514;BME280;39768;54.148;12.174;2023-02-04T20:07:46;104000.94;;;-0.04;100.00
53514;BME280;39768;54.148;12.174;2023-02-04T20:11:52;103992.88;;;-0.07;100.00
53514;BME280;39768;54.148;12.174;2023-02-04T20:15:56;103986.88;;;-0.48;100.00
53514;BME280;39768;54.148;12.174;2023-02-04T20:20:14;103978.94;;;-0.70;100.00
53514;BME280;39768;54.148;12.174;2023-02-04T20:24:16;103984.50;;;-0.13;100.00
53514;BME280;39768;54.148;12.174;2023-02-04T20:28:31;103977.13;;;-0.29;100.00
53514;BME280;39768;54.148;12.174;2023-02-04T20:32:38;103978.50;;;-0.12;100.00
53514;BME280;39768;54.148;12.174;2023-02-04T20:36:41;103983.59;;;-0.04;100.00
53514;BME280;39768;54.148;12.174;2023-02-04T20:40:50;103993.69;;;0.14;100.00
53514;BME280;39768;54.148;12.174;2023-02-04T20:49:49;103975.50;;;-0.07;100.00
53514;BME280;39768;54.148;12.174;2023-02-04T20:53:56;103976.06;;;-0.21;100.00
53514;BME280;39768;54.148;12.174;2023-02-04T20:58:10;103974.72;;;-0.06;100.00
53514;BME280;39768;54.148;12.174;2023-02-04T21:02:18;103973.81;;;-0.06;100.00
53514;BME280;39768;54.148;12.174;2023-02-04T21:06:26;103972.56;;;-0.21;100.00
53514;BME280;39768;54.148;12.174;2023-02-04T21:10:28;103972.69;;;-0.20;100.00
53514;BME280;39768;54.148;12.174;2023-02-04T21:14:30;103965.13;;;-0.27;100.00
53514;BME280;39768;54.148;12.174;2023-02-04T21:18:31;103971.28;;;-1.09;100.00
53514;BME280;39768;54.148;12.174;2023-02-04T21:22:36;103959.56;;;-0.42;100.00
53514;BME280;39768;54.148;12.174;2023-02-04T21:26:38;103969.22;;;-0.09;100.00
53514;BME280;39768;54.148;12.174;2023-02-04T21:30:40;103959.72;;;-0.50;100.00
53514;BME280;39768;54.148;12.174;2023-02-04T21:34:42;103956.31;;;-0.59;100.00